createdAt,value
2017-12-31T00:00:00.447Z,13.07
2017-12-31T00:02:30.382Z,16.60
2017-12-31T00:05:00.263Z,24.17
2017-12-31T00:07:30.314Z,14.00
2017-12-31T00:10:00.267Z,20.57
2017-12-31T00:12:30.736Z,21.30
2017-12-31T00:15:00.681Z,14.90
2017-12-31T00:17:31.000Z,19.03
2017-12-31T00:20:00.929Z,13.40
2017-12-31T00:22:30.958Z,20.57
2017-12-31T00:25:00.871Z,16.53
2017-12-31T00:27:31.656Z,18.77
2017-12-31T00:30:01.536Z,18.83
2017-12-31T00:32:31.446Z,19.47
2017-12-31T00:35:01.334Z,23.57
2017-12-31T00:37:31.324Z,25.97
2017-12-31T00:40:01.231Z,26.17
2017-12-31T00:42:31.200Z,20.87
2017-12-31T00:45:01.069Z,20.77
2017-12-31T00:47:31.033Z,24.47
2017-12-31T00:50:00.927Z,28.87
2017-12-31T00:52:30.856Z,20.03
2017-12-31T00:55:00.869Z,19.13
2017-12-31T00:57:30.807Z,21.33
2017-12-31T01:00:00.802Z,22.50
2017-12-31T01:02:30.684Z,28.37
2017-12-31T01:05:00.629Z,26.30
2017-12-31T01:07:30.510Z,24.83
2017-12-31T01:10:00.522Z,24.80
2017-12-31T01:12:30.398Z,23.23
2017-12-31T01:15:00.314Z,25.93
2017-12-31T01:17:30.212Z,34.87
2017-12-31T01:20:00.144Z,29.00
2017-12-31T01:22:30.195Z,22.20
2017-12-31T01:25:00.100Z,28.20
2017-12-31T01:27:30.016Z,19.30
2017-12-31T01:29:59.961Z,30.83
2017-12-31T01:32:29.838Z,23.80
2017-12-31T01:34:59.753Z,30.57
2017-12-31T01:37:29.634Z,32.87
2017-12-31T01:39:59.540Z,26.60
2017-12-31T01:42:29.451Z,17.00
2017-12-31T01:44:59.355Z,21.53
2017-12-31T01:47:29.226Z,23.50
2017-12-31T01:49:59.116Z,17.60
2017-12-31T01:52:29.015Z,26.30
2017-12-31T01:54:58.976Z,20.77
2017-12-31T01:57:29.319Z,25.83
2017-12-31T01:59:59.203Z,32.43
2017-12-31T02:02:29.502Z,34.43
2017-12-31T02:04:59.388Z,40.20
2017-12-31T02:07:29.290Z,26.40
2017-12-31T02:09:59.166Z,35.27
2017-12-31T02:12:29.327Z,24.93
2017-12-31T02:14:59.216Z,21.73
2017-12-31T02:17:29.126Z,32.90
2017-12-31T02:19:59.095Z,17.83
2017-12-31T02:22:29.022Z,28.10
2017-12-31T02:24:58.913Z,27.13
2017-12-31T02:27:28.812Z,22.73
2017-12-31T02:29:58.763Z,20.17
2017-12-31T02:32:28.656Z,26.80
2017-12-31T02:34:58.560Z,26.53
2017-12-31T02:37:28.453Z,21.53
2017-12-31T02:39:58.670Z,28.27
2017-12-31T02:42:28.560Z,15.27
2017-12-31T02:44:58.834Z,28.93
2017-12-31T02:47:28.709Z,29.07
2017-12-31T02:49:58.942Z,20.53
2017-12-31T02:52:28.837Z,29.90
2017-12-31T02:54:58.828Z,29.53
2017-12-31T02:57:28.724Z,27.57
2017-12-31T02:59:58.621Z,54.70
2017-12-31T03:02:28.526Z,31.30
2017-12-31T03:04:58.402Z,24.37
2017-12-31T03:07:28.326Z,22.70
2017-12-31T03:09:58.199Z,21.83
2017-12-31T03:12:28.103Z,25.50
2017-12-31T03:14:58.091Z,34.60
2017-12-31T03:17:28.039Z,28.73
2017-12-31T03:19:57.970Z,31.40
2017-12-31T03:22:27.884Z,27.40
2017-12-31T03:24:57.830Z,21.23
2017-12-31T03:27:27.703Z,30.37
2017-12-31T03:29:57.592Z,35.23
2017-12-31T03:32:27.477Z,31.87
2017-12-31T03:34:57.700Z,23.77
2017-12-31T03:37:27.611Z,22.80
2017-12-31T03:39:57.818Z,26.67
2017-12-31T03:42:27.697Z,24.60
2017-12-31T03:44:57.594Z,23.20
2017-12-31T03:47:27.494Z,40.67
2017-12-31T03:49:57.774Z,26.60
2017-12-31T03:52:27.653Z,28.60
2017-12-31T03:54:58.013Z,36.30
2017-12-31T03:57:27.906Z,32.63
2017-12-31T03:59:57.806Z,18.93
2017-12-31T04:02:27.749Z,29.43
2017-12-31T04:04:57.979Z,19.43
2017-12-31T04:07:27.867Z,25.60
2017-12-31T04:09:57.781Z,24.57
2017-12-31T04:12:27.662Z,26.63
2017-12-31T04:14:57.573Z,16.27
2017-12-31T04:17:27.522Z,31.20
2017-12-31T04:19:57.772Z,22.43
2017-12-31T04:22:27.632Z,29.37
2017-12-31T04:24:57.534Z,26.30
2017-12-31T04:27:27.420Z,32.60
2017-12-31T04:29:57.342Z,19.47
2017-12-31T04:32:27.211Z,20.83
2017-12-31T04:34:57.415Z,22.83
2017-12-31T04:37:27.279Z,24.07
2017-12-31T04:39:57.265Z,37.50
2017-12-31T04:42:27.157Z,19.60
2017-12-31T04:44:57.061Z,26.23
2017-12-31T04:47:26.942Z,19.53
2017-12-31T04:49:56.828Z,29.07
2017-12-31T04:52:26.704Z,28.50
2017-12-31T04:54:56.585Z,23.80
2017-12-31T04:57:26.488Z,19.07
2017-12-31T04:59:56.384Z,20.37
2017-12-31T05:02:26.274Z,23.50
2017-12-31T05:04:56.144Z,26.63
2017-12-31T05:07:26.063Z,34.97
2017-12-31T05:09:55.932Z,25.20
2017-12-31T05:12:25.832Z,20.90
2017-12-31T05:14:55.695Z,14.67
2017-12-31T05:17:25.566Z,23.80
2017-12-31T05:19:55.705Z,24.70
2017-12-31T05:22:25.573Z,21.03
2017-12-31T05:24:55.866Z,20.53
2017-12-31T05:27:25.751Z,21.10
2017-12-31T05:29:55.680Z,37.40
2017-12-31T05:32:25.668Z,21.30
2017-12-31T05:34:55.587Z,24.63
2017-12-31T05:37:25.450Z,23.97
2017-12-31T05:39:55.366Z,26.33
2017-12-31T05:42:25.249Z,30.10
2017-12-31T05:44:55.460Z,23.10
2017-12-31T05:47:25.436Z,24.67
2017-12-31T05:49:55.311Z,32.13
2017-12-31T05:52:25.223Z,17.20
2017-12-31T05:54:55.133Z,28.73
2017-12-31T05:57:25.006Z,19.73
2017-12-31T05:59:54.910Z,27.17
2017-12-31T06:02:24.788Z,29.07
2017-12-31T06:04:54.750Z,26.53
2017-12-31T06:07:24.638Z,21.33
2017-12-31T06:09:54.518Z,29.50
2017-12-31T06:12:24.391Z,23.40
2017-12-31T06:14:54.263Z,21.67
2017-12-31T06:17:24.211Z,24.20
2017-12-31T06:19:54.078Z,25.03
2017-12-31T06:22:23.980Z,20.07
2017-12-31T06:24:53.889Z,22.40
2017-12-31T06:27:23.774Z,25.17
2017-12-31T06:29:53.652Z,25.10
2017-12-31T06:32:23.541Z,29.93
2017-12-31T06:34:53.435Z,18.80
2017-12-31T06:37:23.316Z,28.50
2017-12-31T06:39:53.356Z,21.70
2017-12-31T06:42:23.285Z,23.23
2017-12-31T06:44:53.224Z,20.63
2017-12-31T06:47:23.178Z,25.87
2017-12-31T06:49:53.175Z,28.70
2017-12-31T06:52:23.046Z,22.43
2017-12-31T06:54:53.280Z,23.73
2017-12-31T06:57:23.147Z,33.40
2017-12-31T06:59:53.130Z,19.00
2017-12-31T07:02:23.000Z,29.63
2017-12-31T07:04:52.951Z,26.73
2017-12-31T07:07:22.972Z,35.90
2017-12-31T07:09:52.992Z,26.40
2017-12-31T07:12:22.879Z,30.73
2017-12-31T07:14:52.774Z,22.13
2017-12-31T07:17:22.667Z,24.90
2017-12-31T07:19:52.552Z,26.07
2017-12-31T07:22:22.503Z,33.90
2017-12-31T07:24:52.398Z,26.33
2017-12-31T07:27:22.322Z,25.33
2017-12-31T07:29:52.310Z,27.23
2017-12-31T07:32:22.227Z,30.93
2017-12-31T07:34:52.122Z,27.27
2017-12-31T07:37:22.169Z,24.10
2017-12-31T07:39:52.050Z,21.97
2017-12-31T07:42:21.940Z,27.83
2017-12-31T07:44:52.823Z,30.43
2017-12-31T07:47:22.761Z,25.47
2017-12-31T07:49:52.778Z,20.53
2017-12-31T07:52:23.092Z,27.23
2017-12-31T07:54:52.969Z,19.23
2017-12-31T07:57:22.885Z,23.77
2017-12-31T07:59:52.785Z,25.77
2017-12-31T08:02:22.729Z,25.00
2017-12-31T08:04:52.689Z,21.63
2017-12-31T08:07:23.903Z,21.17
2017-12-31T08:09:53.810Z,29.23
2017-12-31T08:12:23.677Z,35.30
2017-12-31T08:14:53.572Z,33.90
2017-12-31T08:17:23.463Z,20.93
2017-12-31T08:19:53.615Z,39.03
2017-12-31T08:22:23.498Z,20.27
2017-12-31T08:24:54.214Z,28.10
2017-12-31T08:27:24.103Z,29.03
2017-12-31T08:29:54.278Z,32.80
2017-12-31T08:32:24.163Z,34.40
2017-12-31T08:34:54.620Z,29.47
2017-12-31T08:37:24.587Z,26.53
2017-12-31T08:39:54.704Z,29.37
2017-12-31T08:42:24.603Z,28.73
2017-12-31T08:44:54.510Z,34.20
2017-12-31T08:47:24.391Z,46.37
2017-12-31T08:49:54.403Z,36.40
2017-12-31T08:52:24.393Z,30.40
2017-12-31T08:54:54.409Z,42.87
2017-12-31T08:57:24.417Z,29.93
2017-12-31T08:59:54.471Z,33.40
2017-12-31T09:02:24.345Z,36.13
2017-12-31T09:04:54.274Z,37.60
2017-12-31T09:07:24.162Z,32.80
2017-12-31T09:09:54.550Z,30.63
2017-12-31T09:12:24.520Z,31.40
2017-12-31T09:14:54.782Z,33.00
2017-12-31T09:17:24.711Z,28.63
2017-12-31T09:19:55.246Z,50.97
2017-12-31T09:22:25.156Z,28.40
2017-12-31T09:24:55.308Z,28.73
2017-12-31T09:27:25.245Z,45.33
2017-12-31T09:29:55.173Z,31.97
2017-12-31T09:32:25.064Z,28.07
2017-12-31T09:34:54.960Z,38.80
2017-12-31T09:37:24.854Z,37.13
2017-12-31T09:39:54.780Z,26.93
2017-12-31T09:42:24.678Z,26.07
2017-12-31T09:44:54.550Z,34.43
2017-12-31T09:47:24.495Z,33.10
2017-12-31T09:49:54.374Z,37.03
2017-12-31T09:52:24.267Z,26.60
2017-12-31T09:54:54.185Z,29.00
2017-12-31T09:57:24.175Z,20.20
2017-12-31T09:59:54.174Z,27.07
2017-12-31T10:02:24.070Z,21.30
2017-12-31T10:04:54.005Z,31.13
2017-12-31T10:07:24.368Z,32.17
2017-12-31T10:09:54.237Z,18.47
2017-12-31T10:12:24.660Z,16.60
2017-12-31T10:14:54.546Z,18.63
2017-12-31T10:17:24.444Z,18.67
2017-12-31T10:19:54.333Z,18.00
2017-12-31T10:22:24.642Z,24.17
2017-12-31T10:24:54.757Z,18.07
2017-12-31T10:27:25.108Z,23.40
2017-12-31T10:29:55.081Z,15.70
2017-12-31T10:32:25.357Z,13.30
2017-12-31T10:34:55.231Z,20.83
2017-12-31T10:37:25.473Z,17.70
2017-12-31T10:39:55.367Z,19.17
2017-12-31T10:42:25.284Z,24.67
2017-12-31T10:44:55.166Z,21.00
2017-12-31T10:47:25.460Z,19.50
2017-12-31T10:49:55.464Z,10.27
2017-12-31T10:52:25.423Z,14.03
2017-12-31T10:54:55.287Z,14.03
2017-12-31T11:00:41.935Z,16.27
2017-12-31T11:03:11.919Z,12.70
2017-12-31T11:05:42.114Z,11.77
2017-12-31T11:08:12.026Z,7.53
2017-12-31T11:10:42.374Z,8.60
2017-12-31T11:13:12.275Z,7.17
2017-12-31T11:15:42.244Z,6.17
2017-12-31T11:18:12.215Z,8.27
2017-12-31T11:20:42.427Z,7.97
2017-12-31T11:23:12.420Z,7.57
2017-12-31T11:25:42.358Z,7.27
2017-12-31T11:28:12.306Z,7.10
2017-12-31T11:30:42.391Z,5.30
2017-12-31T11:33:12.338Z,7.40
2017-12-31T11:35:42.329Z,5.43
2017-12-31T11:38:12.222Z,9.83
2017-12-31T11:40:42.150Z,5.37
2017-12-31T11:43:12.060Z,6.23
2017-12-31T11:45:42.064Z,8.63
2017-12-31T11:48:11.974Z,13.13
2017-12-31T11:50:41.909Z,10.40
2017-12-31T11:53:12.299Z,10.63
2017-12-31T11:55:42.185Z,10.40
2017-12-31T11:58:12.219Z,10.20
2017-12-31T12:00:42.198Z,6.00
2017-12-31T12:03:12.187Z,17.80
2017-12-31T12:05:42.131Z,10.73
2017-12-31T12:08:12.041Z,9.50
2017-12-31T12:10:41.952Z,11.07
2017-12-31T12:13:12.816Z,6.00
2017-12-31T12:15:42.732Z,9.93
2017-12-31T12:18:12.645Z,7.90
2017-12-31T12:20:42.693Z,12.10
2017-12-31T12:23:12.611Z,9.40
2017-12-31T12:25:42.488Z,13.43
2017-12-31T12:28:12.427Z,12.60
2017-12-31T12:30:42.305Z,15.13
2017-12-31T12:33:12.255Z,9.70
2017-12-31T12:35:42.137Z,17.53
2017-12-31T12:38:12.367Z,17.03
2017-12-31T12:40:42.297Z,9.93
2017-12-31T12:43:12.462Z,14.10
2017-12-31T12:49:09.264Z,13.03
2017-12-31T12:51:39.628Z,16.53
2017-12-31T12:54:09.577Z,12.37
2017-12-31T12:56:40.078Z,9.03
2017-12-31T12:59:10.064Z,13.87
2017-12-31T13:01:39.977Z,11.77
2017-12-31T13:04:09.936Z,13.00
2017-12-31T13:06:39.872Z,7.30
2017-12-31T13:09:09.855Z,10.90
2017-12-31T13:11:39.910Z,11.87
2017-12-31T13:14:09.861Z,12.10
2017-12-31T13:16:39.795Z,11.57
2017-12-31T13:19:09.692Z,8.97
2017-12-31T13:21:39.677Z,12.33
2017-12-31T13:24:10.445Z,10.93
2017-12-31T13:26:40.485Z,18.33
2017-12-31T13:29:10.424Z,10.40
2017-12-31T13:31:40.642Z,14.57
2017-12-31T13:34:10.565Z,10.90
2017-12-31T13:36:40.541Z,4.70
2017-12-31T13:39:10.502Z,11.87
2017-12-31T13:41:40.430Z,11.10
2017-12-31T13:44:10.328Z,5.93
2017-12-31T13:46:40.284Z,16.47
2017-12-31T13:49:10.305Z,10.60
2017-12-31T13:51:40.296Z,9.03
2017-12-31T13:54:10.333Z,9.77
2017-12-31T13:56:40.311Z,11.40
2017-12-31T13:59:10.194Z,10.47
2017-12-31T14:01:44.135Z,12.27
2017-12-31T14:04:14.602Z,8.57
2017-12-31T14:06:44.567Z,11.03
2017-12-31T14:09:14.495Z,11.27
2017-12-31T14:11:44.462Z,13.07
2017-12-31T14:14:15.338Z,12.80
2017-12-31T14:16:45.365Z,15.03
2017-12-31T14:19:15.386Z,12.40
2017-12-31T14:21:45.760Z,17.30
2017-12-31T14:24:15.749Z,14.20
2017-12-31T14:26:46.074Z,9.67
2017-12-31T14:29:16.066Z,10.13
2017-12-31T14:31:46.662Z,9.77
2017-12-31T14:34:18.130Z,10.13
2017-12-31T14:36:48.603Z,12.20
2017-12-31T14:39:18.603Z,13.00
2017-12-31T14:41:48.508Z,8.73
2017-12-31T14:44:18.399Z,9.57
2017-12-31T14:46:48.862Z,10.80
2017-12-31T14:49:18.752Z,12.73
2017-12-31T14:51:48.694Z,7.50
2017-12-31T14:54:18.643Z,13.03
2017-12-31T14:56:48.889Z,8.40
2017-12-31T14:59:18.858Z,10.33
2017-12-31T15:01:48.918Z,9.73
2017-12-31T15:04:18.916Z,16.57
2017-12-31T15:06:48.901Z,10.37
2017-12-31T15:09:18.870Z,12.67
2017-12-31T15:11:48.965Z,20.33
2017-12-31T15:14:18.971Z,11.67
2017-12-31T15:16:48.891Z,17.00
2017-12-31T15:19:18.826Z,17.20
2017-12-31T15:21:48.809Z,8.80
2017-12-31T15:24:18.762Z,7.40
2017-12-31T15:26:48.762Z,12.20
2017-12-31T15:29:18.729Z,8.80
2017-12-31T15:31:48.642Z,12.83
2017-12-31T15:34:18.575Z,10.30
2017-12-31T15:36:48.562Z,7.73
2017-12-31T15:39:18.540Z,8.83
2017-12-31T15:41:48.475Z,9.73
2017-12-31T15:44:18.463Z,10.93
2017-12-31T15:46:48.588Z,12.57
2017-12-31T15:49:18.510Z,14.23
2017-12-31T15:51:48.502Z,16.90
2017-12-31T15:54:18.447Z,10.93
2017-12-31T15:56:48.468Z,14.23
2017-12-31T16:02:24.097Z,14.07
2017-12-31T16:04:54.033Z,10.00
2017-12-31T16:07:23.980Z,10.63
2017-12-31T16:09:54.054Z,16.77
2017-12-31T16:12:24.230Z,10.87
2017-12-31T16:14:54.273Z,10.00
2017-12-31T16:17:24.295Z,9.57
2017-12-31T16:19:54.230Z,9.07
2017-12-31T16:22:24.245Z,14.17
2017-12-31T16:24:54.215Z,10.07
2017-12-31T16:27:24.331Z,13.60
2017-12-31T16:29:54.387Z,8.97
2017-12-31T16:32:24.412Z,11.57
2017-12-31T16:34:54.320Z,17.10
2017-12-31T16:37:24.358Z,12.77
2017-12-31T16:39:54.276Z,12.43
2017-12-31T16:42:24.390Z,16.17
2017-12-31T16:44:54.337Z,15.60
2017-12-31T16:47:24.343Z,12.70
2017-12-31T16:49:54.278Z,18.33
2017-12-31T16:52:24.191Z,10.90
2017-12-31T16:54:54.118Z,15.00
2017-12-31T16:57:24.040Z,15.97
2017-12-31T16:59:54.040Z,15.43
2017-12-31T17:02:24.067Z,16.40
2017-12-31T17:04:53.975Z,20.93
2017-12-31T17:07:23.878Z,18.43
2017-12-31T17:09:53.833Z,15.60
2017-12-31T17:12:23.907Z,19.57
2017-12-31T17:14:53.975Z,20.20
2017-12-31T17:17:23.900Z,17.30
2017-12-31T17:19:53.895Z,16.43
2017-12-31T17:22:23.870Z,20.47
2017-12-31T17:24:53.855Z,18.73
2017-12-31T17:27:23.801Z,19.80
2017-12-31T17:29:53.761Z,23.13
2017-12-31T17:32:23.708Z,22.03
2017-12-31T17:34:53.675Z,45.97
2017-12-31T17:37:23.592Z,55.00
2017-12-31T17:39:53.874Z,26.20
2017-12-31T17:42:23.946Z,30.53
2017-12-31T17:44:53.879Z,29.80
2017-12-31T17:47:23.802Z,35.80
2017-12-31T17:49:53.820Z,46.17
2017-12-31T17:52:23.736Z,43.90
2017-12-31T17:54:53.822Z,50.13
2017-12-31T17:57:23.722Z,54.00
2017-12-31T17:59:53.646Z,46.40
2017-12-31T18:02:23.577Z,31.20
2017-12-31T18:04:53.676Z,42.27
2017-12-31T18:07:23.814Z,36.93
2017-12-31T18:09:53.818Z,45.27
2017-12-31T18:12:23.821Z,39.00
2017-12-31T18:14:53.831Z,40.27
2017-12-31T18:17:23.721Z,35.70
2017-12-31T18:19:53.759Z,39.30
2017-12-31T18:22:23.654Z,39.23
2017-12-31T18:24:53.581Z,35.40
2017-12-31T18:27:23.460Z,27.57
2017-12-31T18:29:53.435Z,32.70
2017-12-31T18:32:23.437Z,27.10
2017-12-31T18:34:53.355Z,35.37
2017-12-31T18:37:23.286Z,36.97
2017-12-31T18:39:53.202Z,32.03
2017-12-31T18:42:23.225Z,28.33
2017-12-31T18:44:53.139Z,24.30
2017-12-31T18:47:23.029Z,20.57
2017-12-31T18:49:52.932Z,30.17
2017-12-31T18:52:22.933Z,26.23
2017-12-31T18:54:52.958Z,38.50
2017-12-31T18:57:22.840Z,39.13
2017-12-31T18:59:52.743Z,41.73
2017-12-31T19:02:22.803Z,39.07
2017-12-31T19:04:52.720Z,33.93
2017-12-31T19:07:22.736Z,35.40
2017-12-31T19:09:52.642Z,35.63
2017-12-31T19:12:22.664Z,26.27
2017-12-31T19:14:52.686Z,22.20
2017-12-31T19:17:22.603Z,30.27
2017-12-31T19:19:52.493Z,21.37
2017-12-31T19:22:22.408Z,25.83
2017-12-31T19:24:52.305Z,23.90
2017-12-31T19:27:22.212Z,27.57
2017-12-31T19:29:52.206Z,25.63
2017-12-31T19:32:22.136Z,30.47
2017-12-31T19:37:56.817Z,33.97
2017-12-31T19:40:26.716Z,42.53
2017-12-31T19:42:56.621Z,40.63
2017-12-31T19:45:26.545Z,36.60
2017-12-31T19:47:56.770Z,33.17
2017-12-31T19:50:26.648Z,38.47
2017-12-31T19:52:56.568Z,27.23
2017-12-31T19:55:26.507Z,28.27
2017-12-31T19:57:56.421Z,29.33
2017-12-31T20:00:26.302Z,30.27
2017-12-31T20:02:56.219Z,34.93
2017-12-31T20:05:26.127Z,39.87
2017-12-31T20:07:56.042Z,35.87
2017-12-31T20:10:25.960Z,37.40
2017-12-31T20:12:55.882Z,35.47
2017-12-31T20:15:25.796Z,48.10
2017-12-31T20:17:55.715Z,41.53
2017-12-31T20:20:25.625Z,41.80
2017-12-31T20:22:55.510Z,32.73
2017-12-31T20:25:25.464Z,36.70
2017-12-31T20:27:55.349Z,35.67
2017-12-31T20:30:25.358Z,36.90
2017-12-31T20:32:55.242Z,38.43
2017-12-31T20:35:25.150Z,34.17
2017-12-31T20:37:55.126Z,36.73
2017-12-31T20:40:25.271Z,30.80
2017-12-31T20:42:55.210Z,37.67
2017-12-31T20:45:28.931Z,42.27
2017-12-31T20:47:58.820Z,60.50
2017-12-31T20:50:28.728Z,57.60
2017-12-31T20:52:58.633Z,63.50
2017-12-31T20:55:28.550Z,73.60
2017-12-31T20:57:58.489Z,76.23
2017-12-31T21:00:28.398Z,67.67
2017-12-31T21:02:58.330Z,76.83
2017-12-31T21:05:28.243Z,81.13
2017-12-31T21:07:58.185Z,86.40
2017-12-31T21:10:28.067Z,89.07
2017-12-31T21:12:57.960Z,89.03
2017-12-31T21:15:27.904Z,98.60
2017-12-31T21:17:57.894Z,112.63
2017-12-31T21:20:27.850Z,145.10
2017-12-31T21:22:57.818Z,122.60
2017-12-31T21:25:27.715Z,87.07
2017-12-31T21:27:57.586Z,99.97
2017-12-31T21:30:27.572Z,82.70
2017-12-31T21:32:57.490Z,79.20
2017-12-31T21:35:27.394Z,88.03
2017-12-31T21:37:57.295Z,81.53
2017-12-31T21:40:27.275Z,98.63
2017-12-31T21:42:57.299Z,118.53
2017-12-31T21:45:27.198Z,123.73
2017-12-31T21:47:57.097Z,126.13
2017-12-31T21:50:27.102Z,103.87
2017-12-31T21:52:57.098Z,116.60
2017-12-31T21:55:27.003Z,100.27
2017-12-31T21:57:56.917Z,101.00
2017-12-31T22:00:26.812Z,77.07
2017-12-31T22:02:56.711Z,72.07
2017-12-31T22:05:26.591Z,71.70
2017-12-31T22:07:56.508Z,55.40
2017-12-31T22:10:26.405Z,56.30
2017-12-31T22:12:56.329Z,55.80
2017-12-31T22:15:26.225Z,50.30
2017-12-31T22:17:56.146Z,52.80
2017-12-31T22:20:26.053Z,70.43
2017-12-31T22:22:55.969Z,62.53
2017-12-31T22:25:25.870Z,53.70
2017-12-31T22:27:55.827Z,50.23
2017-12-31T22:30:25.740Z,49.80
2017-12-31T22:32:55.662Z,56.90
2017-12-31T22:35:25.567Z,71.50
2017-12-31T22:37:55.450Z,63.47
2017-12-31T22:40:25.427Z,56.47
2017-12-31T22:42:55.300Z,49.13
2017-12-31T22:45:25.241Z,56.03
2017-12-31T22:47:55.137Z,49.93
2017-12-31T22:50:25.328Z,52.40
2017-12-31T22:52:55.361Z,62.40
2017-12-31T22:55:25.298Z,48.23
2017-12-31T22:57:55.193Z,71.30
2017-12-31T23:00:25.123Z,188.83
2017-12-31T23:02:55.028Z,161.17
2017-12-31T23:05:24.936Z,253.20
2017-12-31T23:07:54.853Z,373.60
2017-12-31T23:10:25.009Z,376.77
2017-12-31T23:12:55.596Z,424.77
2017-12-31T23:15:25.638Z,600.43
2017-12-31T23:21:01.413Z,762.93
2017-12-31T23:23:31.281Z,911.17
2017-12-31T23:26:01.209Z,863.17
2017-12-31T23:28:31.139Z,943.47
2017-12-31T23:31:01.059Z,946.37
2017-12-31T23:33:30.944Z,964.17
2017-12-31T23:36:00.839Z,950.40
2017-12-31T23:38:30.688Z,930.20
2017-12-31T23:41:00.573Z,886.83
2017-12-31T23:43:30.509Z,830.80
2017-12-31T23:46:00.425Z,771.70
2017-12-31T23:48:30.539Z,821.13
2017-12-31T23:51:00.460Z,794.93
2017-12-31T23:56:00.300Z,521.03
2017-12-31T23:58:30.349Z,442.53
